createdAt,value
2023-04-19T00:01:49.390Z,2.70
2023-04-19T00:04:16.892Z,2.60
2023-04-19T00:06:44.648Z,3.05
2023-04-19T00:09:11.686Z,2.13
2023-04-19T00:11:38.740Z,3.00
2023-04-19T00:14:05.653Z,3.72
2023-04-19T00:16:32.695Z,3.63
2023-04-19T00:18:59.797Z,3.88
2023-04-19T00:21:27.282Z,2.60
2023-04-19T00:23:54.269Z,2.28
2023-04-19T00:26:21.509Z,2.80
2023-04-19T00:28:52.781Z,2.65
2023-04-19T00:31:23.147Z,2.47
2023-04-19T00:33:50.520Z,2.83
2023-04-19T00:36:19.196Z,2.38
2023-04-19T00:38:48.101Z,2.35
2023-04-19T00:41:16.424Z,2.08
2023-04-19T00:43:43.452Z,1.65
2023-04-19T00:46:10.701Z,1.83
2023-04-19T00:48:38.985Z,2.00
2023-04-19T00:51:06.732Z,2.00
2023-04-19T00:53:34.357Z,1.80
2023-04-19T00:56:04.754Z,1.65
2023-04-19T00:58:32.319Z,1.80
2023-04-19T01:01:00.095Z,2.10
2023-04-19T01:03:27.837Z,1.73
2023-04-19T01:05:56.764Z,2.08
2023-04-19T01:08:24.151Z,2.13
2023-04-19T01:10:54.593Z,1.88
2023-04-19T01:13:21.907Z,1.90
2023-04-19T01:15:49.110Z,1.98
2023-04-19T01:18:16.198Z,2.10
2023-04-19T01:20:43.513Z,2.20
2023-04-19T01:23:11.992Z,2.55
2023-04-19T01:25:39.227Z,2.40
2023-04-19T01:28:06.491Z,2.60
2023-04-19T01:30:34.632Z,3.33
2023-04-19T01:33:01.911Z,2.88
2023-04-19T01:35:29.964Z,3.40
2023-04-19T01:37:56.916Z,2.83
2023-04-19T01:40:25.611Z,2.97
2023-04-19T01:42:53.026Z,3.17
2023-04-19T01:45:20.820Z,2.63
2023-04-19T01:47:51.689Z,2.85
2023-04-19T01:50:18.962Z,2.50
2023-04-19T01:52:46.016Z,2.70
2023-04-19T01:55:13.181Z,2.63
2023-04-19T01:57:40.291Z,3.15
2023-04-19T02:00:08.939Z,2.80
2023-04-19T02:02:42.157Z,2.83
2023-04-19T02:05:10.177Z,3.00
2023-04-19T02:07:37.622Z,3.15
2023-04-19T02:10:06.127Z,3.20
2023-04-19T02:12:34.629Z,3.30
2023-04-19T02:15:04.532Z,3.28
2023-04-19T02:17:34.363Z,3.58
2023-04-19T02:20:01.574Z,3.58
2023-04-19T02:22:32.239Z,3.75
2023-04-19T02:24:59.246Z,3.75
2023-04-19T02:27:32.075Z,3.70
2023-04-19T02:29:59.928Z,3.50
2023-04-19T02:32:27.155Z,3.65
2023-04-19T02:34:54.194Z,4.05
2023-04-19T02:37:21.055Z,4.20
2023-04-19T02:39:48.912Z,3.67
2023-04-19T02:42:15.925Z,4.30
2023-04-19T02:44:43.103Z,3.78
2023-04-19T02:47:10.240Z,4.45
2023-04-19T02:49:41.448Z,4.13
2023-04-19T02:52:09.918Z,5.10
2023-04-19T02:57:06.163Z,4.03
2023-04-19T02:59:33.229Z,4.20
2023-04-19T03:02:04.279Z,4.85
2023-04-19T03:04:31.447Z,4.15
2023-04-19T03:06:58.810Z,4.10
2023-04-19T03:09:26.552Z,4.25
2023-04-19T03:11:53.647Z,3.97
2023-04-19T03:14:20.918Z,4.47
2023-04-19T03:16:47.884Z,4.75
2023-04-19T03:19:15.433Z,4.45
2023-04-19T03:21:48.570Z,4.22
2023-04-19T03:24:18.849Z,4.82
2023-04-19T03:26:50.072Z,5.18
2023-04-19T03:29:22.412Z,5.03
2023-04-19T03:31:57.695Z,4.90
2023-04-19T03:34:24.780Z,5.45
2023-04-19T03:36:51.703Z,5.03
2023-04-19T03:39:19.462Z,4.70
2023-04-19T03:41:50.396Z,4.80
2023-04-19T03:44:36.552Z,4.68
2023-04-19T03:47:05.803Z,5.55
2023-04-19T03:49:39.977Z,5.47
2023-04-19T03:52:07.257Z,5.47
2023-04-19T03:54:34.996Z,5.63
2023-04-19T03:57:04.549Z,4.90
2023-04-19T03:59:32.274Z,4.70
2023-04-19T04:01:59.889Z,4.68
2023-04-19T04:04:27.071Z,4.50
2023-04-19T04:06:55.792Z,4.85
2023-04-19T04:09:23.075Z,5.10
2023-04-19T04:11:51.010Z,5.15
2023-04-19T04:14:18.151Z,5.15
2023-04-19T04:16:46.986Z,4.60
2023-04-19T04:19:16.226Z,4.70
2023-04-19T04:21:43.497Z,5.10
2023-04-19T04:24:11.534Z,4.97
2023-04-19T04:27:03.266Z,5.40
2023-04-19T04:29:33.466Z,4.65
2023-04-19T04:32:06.247Z,5.13
2023-04-19T04:34:39.652Z,5.63
2023-04-19T04:37:11.826Z,5.93
2023-04-19T04:39:39.894Z,5.47
2023-04-19T04:42:09.210Z,5.38
2023-04-19T04:44:36.921Z,6.00
2023-04-19T04:47:03.853Z,5.70
2023-04-19T04:49:36.500Z,6.13
2023-04-19T04:52:04.171Z,5.57
2023-04-19T04:54:36.413Z,5.55
2023-04-19T04:57:05.084Z,5.45
2023-04-19T04:59:32.254Z,5.72
2023-04-19T05:01:59.402Z,5.75
2023-04-19T05:04:26.708Z,5.80
2023-04-19T05:06:53.883Z,6.00
2023-04-19T05:09:25.490Z,5.45
2023-04-19T05:11:52.812Z,6.30
2023-04-19T05:14:19.885Z,5.97
2023-04-19T05:16:47.084Z,6.15
2023-04-19T05:19:14.202Z,5.70
2023-04-19T05:21:48.318Z,5.78
2023-04-19T05:24:16.432Z,6.38
2023-04-19T05:26:44.435Z,6.28
2023-04-19T05:29:12.074Z,6.47
2023-04-19T05:31:46.786Z,5.60
2023-04-19T05:34:22.375Z,6.30
2023-04-19T05:36:50.338Z,6.38
2023-04-19T05:39:17.383Z,6.13
2023-04-19T05:41:44.495Z,6.85
2023-04-19T05:44:11.412Z,5.70
2023-04-19T05:46:39.328Z,6.50
2023-04-19T05:49:09.026Z,6.57
2023-04-19T05:52:09.485Z,5.97
2023-04-19T05:54:45.475Z,6.50
2023-04-19T05:57:13.253Z,6.72
2023-04-19T05:59:40.334Z,6.10
2023-04-19T06:02:07.882Z,6.32
2023-04-19T06:04:34.962Z,6.10
2023-04-19T06:07:04.660Z,6.50
2023-04-19T06:09:33.866Z,6.35
2023-04-19T06:12:02.051Z,5.60
2023-04-19T06:14:29.771Z,6.43
2023-04-19T06:16:57.557Z,5.63
2023-04-19T06:19:25.969Z,6.20
2023-04-19T06:21:53.032Z,6.18
2023-04-19T06:24:20.127Z,5.47
2023-04-19T06:26:48.415Z,6.18
2023-04-19T06:29:15.538Z,5.57
2023-04-19T06:31:42.977Z,5.72
2023-04-19T06:34:11.168Z,6.05
2023-04-19T06:36:38.311Z,5.45
2023-04-19T06:39:05.447Z,5.97
2023-04-19T06:41:32.373Z,6.05
2023-04-19T06:43:59.703Z,5.38
2023-04-19T06:46:27.783Z,4.90
2023-04-19T06:48:56.294Z,5.10
2023-04-19T06:51:23.451Z,5.45
2023-04-19T06:53:51.274Z,4.95
2023-04-19T06:56:18.518Z,4.68
2023-04-19T06:58:45.467Z,5.40
2023-04-19T07:01:13.151Z,5.13
2023-04-19T07:03:40.401Z,6.22
2023-04-19T07:06:07.892Z,5.05
2023-04-19T07:08:48.877Z,5.65
2023-04-19T07:11:16.606Z,5.57
2023-04-19T07:13:43.719Z,5.60
2023-04-19T07:16:10.862Z,5.97
2023-04-19T07:18:37.912Z,5.75
2023-04-19T07:21:04.852Z,6.85
2023-04-19T07:23:31.960Z,6.28
2023-04-19T07:25:58.860Z,6.28
2023-04-19T07:28:26.087Z,5.30
2023-04-19T07:30:52.991Z,5.40
2023-04-19T07:33:20.280Z,5.05
2023-04-19T07:35:47.669Z,5.43
2023-04-19T07:38:14.563Z,5.30
2023-04-19T07:40:42.697Z,5.35
2023-04-19T07:43:09.719Z,4.95
2023-04-19T07:45:36.658Z,4.53
2023-04-19T07:48:03.850Z,4.53
2023-04-19T07:50:30.868Z,4.78
2023-04-19T07:52:58.055Z,5.07
2023-04-19T07:55:25.042Z,5.60
2023-04-19T07:57:52.299Z,5.15
2023-04-19T08:00:21.654Z,4.57
2023-04-19T08:05:21.134Z,7.07
2023-04-19T08:11:47.681Z,4.45
2023-04-19T08:14:30.603Z,5.00
2023-04-19T08:17:24.314Z,4.70
2023-04-19T08:19:54.314Z,4.63
2023-04-19T08:22:21.626Z,4.32
2023-04-19T08:24:52.212Z,4.18
2023-04-19T08:27:20.141Z,3.85
2023-04-19T08:29:47.227Z,4.35
2023-04-19T08:32:14.210Z,4.45
2023-04-19T08:34:41.293Z,4.07
2023-04-19T08:37:08.420Z,4.22
2023-04-19T08:39:35.859Z,4.22
2023-04-19T08:42:17.702Z,3.40
2023-04-19T08:45:23.387Z,3.95
2023-04-19T08:47:58.642Z,4.10
2023-04-19T08:53:12.276Z,3.70
2023-04-19T08:56:07.835Z,3.50
2023-04-19T08:58:56.922Z,3.70
2023-04-19T09:01:34.883Z,4.03
2023-04-19T09:04:26.385Z,3.90
2023-04-19T09:06:55.970Z,3.60
2023-04-19T09:09:37.202Z,4.32
2023-04-19T09:12:18.148Z,3.78
2023-04-19T09:15:00.571Z,3.10
2023-04-19T09:17:34.003Z,3.50
2023-04-19T09:20:00.993Z,3.25
2023-04-19T09:22:28.027Z,3.40
2023-04-19T09:27:36.475Z,2.83
2023-04-19T09:30:05.109Z,3.10
2023-04-19T09:32:49.051Z,3.10
2023-04-19T09:35:16.902Z,3.22
2023-04-19T09:38:05.866Z,2.95
2023-04-19T09:40:34.265Z,3.33
2023-04-19T09:43:23.079Z,3.15
2023-04-19T09:45:52.657Z,2.95
2023-04-19T09:48:19.850Z,3.08
2023-04-19T09:51:00.900Z,2.80
2023-04-19T09:53:35.451Z,3.30
2023-04-19T09:56:04.312Z,2.53
2023-04-19T09:58:42.536Z,3.03
2023-04-19T10:01:20.121Z,3.05
2023-04-19T10:03:50.882Z,3.63
2023-04-19T10:08:52.629Z,2.58
2023-04-19T10:11:22.705Z,2.88
2023-04-19T10:13:54.572Z,2.75
2023-04-19T10:16:21.921Z,2.92
2023-04-19T10:18:50.626Z,3.33
2023-04-19T10:21:20.054Z,3.58
2023-04-19T10:23:48.226Z,3.40
2023-04-19T10:26:15.353Z,3.10
2023-04-19T10:28:43.839Z,3.20
2023-04-19T10:31:14.460Z,3.05
2023-04-19T10:33:42.146Z,3.10
2023-04-19T10:36:11.248Z,2.50
2023-04-19T10:41:13.595Z,2.83
2023-04-19T10:43:58.191Z,2.47
2023-04-19T10:46:26.147Z,3.20
2023-04-19T10:49:01.793Z,2.83
2023-04-19T10:51:35.794Z,3.17
2023-04-19T10:54:35.873Z,2.80
2023-04-19T10:57:11.194Z,2.85
2023-04-19T10:59:40.370Z,3.28
2023-04-19T11:02:22.444Z,3.30
2023-04-19T11:04:52.424Z,3.42
2023-04-19T11:07:21.483Z,3.35
2023-04-19T11:09:49.795Z,3.00
2023-04-19T11:12:21.501Z,3.38
2023-04-19T11:14:59.714Z,3.08
2023-04-19T11:17:32.036Z,3.20
2023-04-19T11:19:59.189Z,3.20
2023-04-19T11:22:37.447Z,3.30
2023-04-19T11:25:09.012Z,3.10
2023-04-19T11:27:37.636Z,3.67
2023-04-19T11:30:10.314Z,2.83
2023-04-19T11:32:38.281Z,2.40
2023-04-19T11:35:09.810Z,2.90
2023-04-19T11:37:38.093Z,2.70
2023-04-19T11:40:06.953Z,2.45
2023-04-19T11:42:34.092Z,2.47
2023-04-19T11:45:01.307Z,2.30
2023-04-19T11:47:28.523Z,2.78
2023-04-19T11:49:56.471Z,2.30
2023-04-19T11:52:25.867Z,2.78
2023-04-19T11:54:53.968Z,2.33
2023-04-19T11:57:31.690Z,2.63
2023-04-19T12:00:06.801Z,2.47
2023-04-19T12:02:44.520Z,2.50
2023-04-19T12:05:14.310Z,2.38
2023-04-19T12:08:03.343Z,1.90
2023-04-19T12:10:32.525Z,2.20
2023-04-19T12:12:59.808Z,2.38
2023-04-19T12:15:43.765Z,2.85
2023-04-19T12:18:11.171Z,2.05
2023-04-19T12:20:44.001Z,2.30
2023-04-19T12:23:13.926Z,1.83
2023-04-19T12:25:42.240Z,2.30
2023-04-19T12:28:09.569Z,1.90
2023-04-19T12:30:37.199Z,2.03
2023-04-19T12:33:04.964Z,2.45
2023-04-19T12:35:32.090Z,2.10
2023-04-19T12:38:00.098Z,2.33
2023-04-19T12:40:27.695Z,2.20
2023-04-19T12:42:55.049Z,3.25
2023-04-19T12:45:22.204Z,2.88
2023-04-19T12:47:49.445Z,3.75
2023-04-19T12:50:16.533Z,3.40
2023-04-19T12:52:46.236Z,3.53
2023-04-19T12:55:13.445Z,4.53
2023-04-19T12:57:40.540Z,6.00
2023-04-19T13:00:10.488Z,5.88
2023-04-19T13:02:39.749Z,6.72
2023-04-19T13:05:09.785Z,4.90
2023-04-19T13:07:37.260Z,3.25
2023-04-19T13:10:04.716Z,2.20
2023-04-19T13:12:31.826Z,2.15
2023-04-19T13:14:58.844Z,2.40
2023-04-19T13:17:25.800Z,2.08
2023-04-19T13:19:52.764Z,2.15
2023-04-19T13:22:19.992Z,1.80
2023-04-19T13:24:47.248Z,2.30
2023-04-19T13:27:14.284Z,2.20
2023-04-19T13:29:41.339Z,2.47
2023-04-19T13:32:12.462Z,2.28
2023-04-19T13:34:40.554Z,2.30
2023-04-19T13:37:08.430Z,2.50
2023-04-19T13:39:35.484Z,2.90
2023-04-19T13:42:02.427Z,2.58
2023-04-19T13:44:29.518Z,2.95
2023-04-19T13:46:56.921Z,3.05
2023-04-19T13:49:25.089Z,2.58
2023-04-19T13:51:52.152Z,2.72
2023-04-19T13:54:20.012Z,2.90
2023-04-19T13:56:49.796Z,3.10
2023-04-19T13:59:18.833Z,3.10
2023-04-19T14:01:45.951Z,3.00
2023-04-19T14:04:13.151Z,2.40
2023-04-19T14:06:40.360Z,2.70
2023-04-19T14:09:25.918Z,2.55
2023-04-19T14:11:53.855Z,2.40
2023-04-19T14:14:21.035Z,2.45
2023-04-19T14:16:51.077Z,2.58
2023-04-19T14:19:22.683Z,3.10
2023-04-19T14:21:50.158Z,2.80
2023-04-19T14:24:17.829Z,2.58
2023-04-19T14:26:45.274Z,2.60
2023-04-19T14:29:12.188Z,2.70
2023-04-19T14:31:39.378Z,2.65
2023-04-19T14:34:06.876Z,2.80
2023-04-19T14:36:33.922Z,2.83
2023-04-19T14:39:02.958Z,3.00
2023-04-19T14:41:30.346Z,3.08
2023-04-19T14:43:57.760Z,2.90
2023-04-19T14:46:24.895Z,2.33
2023-04-19T14:48:51.963Z,2.08
2023-04-19T14:51:18.842Z,2.60
2023-04-19T14:53:45.996Z,2.85
2023-04-19T14:56:14.070Z,2.33
2023-04-19T14:58:41.256Z,2.22
2023-04-19T15:01:15.685Z,2.20
2023-04-19T15:03:43.433Z,2.30
2023-04-19T15:06:10.931Z,2.40
2023-04-19T15:08:39.126Z,2.00
2023-04-19T15:11:06.076Z,2.50
2023-04-19T15:13:33.986Z,2.50
2023-04-19T15:16:03.347Z,2.70
2023-04-19T15:18:30.752Z,2.60
2023-04-19T15:20:57.886Z,2.92
2023-04-19T15:23:26.590Z,3.40
2023-04-19T15:25:53.528Z,3.17
2023-04-19T15:29:47.732Z,3.72
2023-04-19T15:32:50.709Z,5.43
2023-04-19T15:35:17.727Z,4.40
2023-04-19T15:37:48.333Z,4.30
2023-04-19T15:40:17.121Z,3.97
2023-04-19T15:42:44.285Z,4.72
2023-04-19T15:45:11.265Z,4.38
2023-04-19T15:47:39.458Z,3.90
2023-04-19T15:50:06.904Z,3.30
2023-04-19T15:52:34.261Z,3.97
2023-04-19T15:55:01.243Z,3.63
2023-04-19T15:57:28.919Z,3.50
2023-04-19T15:59:58.891Z,3.35
2023-04-19T16:02:26.242Z,3.30
2023-04-19T16:04:53.742Z,3.15
2023-04-19T16:07:21.124Z,3.00
2023-04-19T16:09:48.098Z,3.33
2023-04-19T16:12:15.063Z,2.72
2023-04-19T16:14:41.998Z,2.90
2023-04-19T16:17:09.003Z,2.80
2023-04-19T16:19:35.860Z,3.75
2023-04-19T16:22:05.386Z,3.80
2023-04-19T16:24:32.576Z,4.28
2023-04-19T16:26:59.662Z,4.15
2023-04-19T16:29:27.205Z,4.28
2023-04-19T16:31:54.469Z,5.47
2023-04-19T16:34:23.949Z,4.88
2023-04-19T16:36:54.421Z,5.30
2023-04-19T16:39:21.704Z,4.95
2023-04-19T16:41:49.093Z,5.32
2023-04-19T16:44:16.441Z,5.85
2023-04-19T16:46:43.540Z,6.72
2023-04-19T16:49:10.901Z,7.28
2023-04-19T16:51:37.944Z,7.45
2023-04-19T16:54:05.243Z,7.32
2023-04-19T16:56:32.152Z,6.88
2023-04-19T16:58:59.285Z,7.53
2023-04-19T17:01:26.388Z,7.93
2023-04-19T17:03:53.641Z,7.15
2023-04-19T17:06:21.794Z,8.38
2023-04-19T17:08:48.876Z,12.65
2023-04-19T17:11:15.874Z,8.60
2023-04-19T17:13:43.203Z,8.07
2023-04-19T17:16:13.385Z,9.70
2023-04-19T17:18:40.568Z,9.18
2023-04-19T17:21:07.691Z,9.23
2023-04-19T17:23:34.573Z,8.45
2023-04-19T17:26:01.779Z,9.13
2023-04-19T17:28:28.696Z,10.07
2023-04-19T17:30:56.038Z,10.93
2023-04-19T17:33:23.095Z,10.93
2023-04-19T17:35:51.275Z,12.25
2023-04-19T17:38:18.172Z,16.27
2023-04-19T17:40:45.239Z,12.60
2023-04-19T17:43:12.316Z,12.57
2023-04-19T17:45:39.241Z,12.00
2023-04-19T17:48:06.667Z,13.68
2023-04-19T17:50:33.709Z,12.10
2023-04-19T17:53:00.705Z,11.88
2023-04-19T17:55:27.780Z,13.07
2023-04-19T17:57:54.688Z,12.35
2023-04-19T18:00:21.836Z,12.45
2023-04-19T18:02:49.396Z,12.15
2023-04-19T18:05:17.048Z,11.30
2023-04-19T18:07:44.455Z,12.00
2023-04-19T18:10:11.569Z,12.20
2023-04-19T18:12:38.691Z,12.02
2023-04-19T18:15:06.390Z,11.43
2023-04-19T18:17:33.669Z,10.48
2023-04-19T18:20:02.157Z,10.90
2023-04-19T18:22:31.372Z,11.38
2023-04-19T18:24:58.470Z,12.00
2023-04-19T18:27:26.280Z,11.13
2023-04-19T18:29:53.409Z,12.88
2023-04-19T18:32:22.741Z,11.65
2023-04-19T18:34:49.845Z,11.50
2023-04-19T18:37:17.414Z,12.15
2023-04-19T18:39:45.012Z,11.07
2023-04-19T18:42:12.448Z,11.25
2023-04-19T18:44:52.867Z,11.00
2023-04-19T18:47:21.747Z,11.40
2023-04-19T18:50:02.782Z,12.88
2023-04-19T18:52:33.111Z,11.63
2023-04-19T18:55:00.819Z,11.93
2023-04-19T18:57:47.490Z,12.43
2023-04-19T19:00:16.373Z,11.90
2023-04-19T19:02:44.678Z,12.90
2023-04-19T19:05:13.809Z,13.65
2023-04-19T19:07:42.065Z,12.45
2023-04-19T19:10:19.451Z,30.33
2023-04-19T19:12:49.257Z,15.70
2023-04-19T19:15:16.783Z,15.23
2023-04-19T19:17:49.440Z,14.48
2023-04-19T19:20:18.736Z,14.88
2023-04-19T19:22:46.329Z,15.13
2023-04-19T19:25:13.509Z,14.10
2023-04-19T19:27:40.876Z,15.52
2023-04-19T19:30:08.388Z,16.55
2023-04-19T19:32:35.529Z,15.05
2023-04-19T19:35:06.258Z,17.58
2023-04-19T19:37:36.967Z,16.42
2023-04-19T19:40:11.017Z,17.77
2023-04-19T19:42:41.338Z,16.40
2023-04-19T19:45:09.339Z,14.63
2023-04-19T19:47:43.144Z,13.23
2023-04-19T19:51:01.131Z,13.38
2023-04-19T19:53:01.505Z,16.58
2023-04-19T19:55:28.943Z,18.30
2023-04-19T20:02:56.950Z,20.42
2023-04-19T20:05:24.682Z,23.92
2023-04-19T20:10:22.150Z,29.83
2023-04-19T20:12:49.294Z,30.80
2023-04-19T20:15:16.647Z,34.60
2023-04-19T20:17:44.220Z,33.17
2023-04-19T20:20:11.764Z,32.20
2023-04-19T20:22:38.984Z,31.00
2023-04-19T20:25:06.617Z,35.03
2023-04-19T20:27:33.842Z,32.20
2023-04-19T20:30:00.989Z,19.45
2023-04-19T20:32:31.828Z,22.75
2023-04-19T20:35:00.250Z,23.00
2023-04-19T20:37:27.605Z,25.67
2023-04-19T20:39:57.852Z,19.05
2023-04-19T20:42:25.316Z,16.23
2023-04-19T20:44:52.266Z,15.23
2023-04-19T20:47:19.964Z,15.07
2023-04-19T20:49:47.051Z,14.98
2023-04-19T20:52:13.997Z,15.00
2023-04-19T20:54:41.210Z,13.98
2023-04-19T20:57:08.128Z,14.43
2023-04-19T20:59:35.266Z,11.40
2023-04-19T21:02:03.675Z,12.13
2023-04-19T21:04:31.176Z,12.02
2023-04-19T21:07:00.441Z,11.73
2023-04-19T21:09:31.912Z,11.07
2023-04-19T21:11:59.241Z,11.73
2023-04-19T21:14:26.172Z,11.88
2023-04-19T21:16:53.138Z,10.95
2023-04-19T21:19:20.915Z,11.70
2023-04-19T21:21:47.989Z,11.40
2023-04-19T21:24:15.156Z,10.68
2023-04-19T21:26:42.576Z,9.25
2023-04-19T21:29:09.670Z,9.93
2023-04-19T21:31:36.588Z,10.60
2023-04-19T21:34:03.764Z,10.25
2023-04-19T21:36:31.660Z,11.15
2023-04-19T21:38:58.863Z,10.43
2023-04-19T21:41:26.349Z,11.70
2023-04-19T21:43:53.301Z,10.10
2023-04-19T21:46:20.332Z,11.30
2023-04-19T21:48:47.369Z,9.60
2023-04-19T21:51:15.164Z,10.60
2023-04-19T21:53:42.423Z,11.65
2023-04-19T21:56:09.554Z,10.18
2023-04-19T21:58:36.857Z,11.20
2023-04-19T22:01:04.087Z,10.18
2023-04-19T22:03:32.158Z,10.48
2023-04-19T22:06:02.203Z,10.57
2023-04-19T22:08:32.135Z,9.35
2023-04-19T22:11:01.199Z,9.10
2023-04-19T22:13:28.513Z,9.18
2023-04-19T22:15:57.227Z,8.98
2023-04-19T22:18:24.422Z,9.02
2023-04-19T22:20:52.193Z,9.43
2023-04-19T22:23:19.489Z,9.00
2023-04-19T22:25:46.405Z,8.55
2023-04-19T22:28:13.478Z,9.00
2023-04-19T22:30:40.356Z,8.75
2023-04-19T22:33:07.583Z,9.07
2023-04-19T22:35:34.529Z,8.68
2023-04-19T22:38:01.636Z,8.88
2023-04-19T22:40:28.657Z,9.35
2023-04-19T22:42:55.918Z,9.35
2023-04-19T22:45:22.797Z,8.95
2023-04-19T22:47:49.985Z,9.18
2023-04-19T22:50:17.146Z,8.32
2023-04-19T22:52:44.648Z,9.40
2023-04-19T22:55:11.986Z,9.32
2023-04-19T22:57:39.150Z,10.23
2023-04-19T23:00:07.132Z,10.23
2023-04-19T23:02:34.354Z,9.80
2023-04-19T23:05:02.166Z,9.95
2023-04-19T23:07:30.746Z,9.38
2023-04-19T23:09:57.754Z,10.23
2023-04-19T23:12:24.895Z,10.05
2023-04-19T23:14:51.949Z,9.98
2023-04-19T23:17:20.004Z,10.30
2023-04-19T23:19:48.202Z,10.77
2023-04-19T23:22:15.121Z,10.20
2023-04-19T23:24:42.287Z,10.48
2023-04-19T23:27:09.313Z,10.15
2023-04-19T23:29:36.611Z,10.18
2023-04-19T23:32:03.634Z,10.05
2023-04-19T23:34:31.027Z,9.73
2023-04-19T23:36:58.068Z,10.18
2023-04-19T23:39:25.079Z,9.98
2023-04-19T23:41:52.129Z,9.23
2023-04-19T23:44:19.347Z,8.98
2023-04-19T23:46:46.510Z,9.55
2023-04-19T23:49:13.475Z,9.35
2023-04-19T23:51:40.737Z,8.45
2023-04-19T23:54:07.661Z,9.00
2023-04-19T23:56:34.656Z,8.07
2023-04-19T23:59:01.728Z,8.50
